sensor_id;sensor_type;location;lat;lon;timestamp;P1;durP1;ratioP1;P2;durP2;ratioP2
9370;SDS011;4725;48.384;8.984;2022-08-05T00:01:28;3.08;;;2.42;;
9370;SDS011;4725;48.384;8.984;2022-08-05T00:03:56;3.67;;;2.58;;
9370;SDS011;4725;48.384;8.984;2022-08-05T00:06:23;2.60;;;1.88;;
9370;SDS011;4725;48.384;8.984;2022-08-05T00:08:50;3.40;;;2.50;;
9370;SDS011;4725;48.384;8.984;2022-08-05T00:11:17;2.70;;;2.50;;
9370;SDS011;4725;48.384;8.984;2022-08-05T00:13:44;7.95;;;2.28;;
9370;SDS011;4725;48.384;8.984;2022-08-05T00:16:11;4.82;;;2.22;;
9370;SDS011;4725;48.384;8.984;2022-08-05T00:18:41;6.72;;;2.70;;
9370;SDS011;4725;48.384;8.984;2022-08-05T00:21:11;2.67;;;2.47;;
9370;SDS011;4725;48.384;8.984;2022-08-05T00:23:39;4.32;;;2.80;;
9370;SDS011;4725;48.384;8.984;2022-08-05T00:26:07;3.80;;;2.95;;
9370;SDS011;4725;48.384;8.984;2022-08-05T00:28:34;2.55;;;2.20;;
9370;SDS011;4725;48.384;8.984;2022-08-05T00:31:01;3.45;;;3.05;;
9370;SDS011;4725;48.384;8.984;2022-08-05T00:33:28;2.80;;;2.60;;
9370;SDS011;4725;48.384;8.984;2022-08-05T00:35:55;2.80;;;2.60;;
9370;SDS011;4725;48.384;8.984;2022-08-05T00:38:24;4.20;;;2.72;;
9370;SDS011;4725;48.384;8.984;2022-08-05T00:40:51;4.68;;;2.92;;
9370;SDS011;4725;48.384;8.984;2022-08-05T00:43:19;5.47;;;2.67;;
9370;SDS011;4725;48.384;8.984;2022-08-05T00:45:47;2.88;;;2.58;;
9370;SDS011;4725;48.384;8.984;2022-08-05T00:48:15;5.28;;;3.30;;
9370;SDS011;4725;48.384;8.984;2022-08-05T00:50:44;3.45;;;2.83;;
9370;SDS011;4725;48.384;8.984;2022-08-05T00:53:12;4.13;;;2.95;;
9370;SDS011;4725;48.384;8.984;2022-08-05T00:55:42;2.85;;;2.55;;
9370;SDS011;4725;48.384;8.984;2022-08-05T00:58:09;2.50;;;2.30;;
9370;SDS011;4725;48.384;8.984;2022-08-05T01:00:36;3.30;;;2.50;;
9370;SDS011;4725;48.384;8.984;2022-08-05T01:03:04;2.85;;;2.63;;
9370;SDS011;4725;48.384;8.984;2022-08-05T01:05:31;3.13;;;2.60;;
9370;SDS011;4725;48.384;8.984;2022-08-05T01:07:58;5.80;;;2.58;;
9370;SDS011;4725;48.384;8.984;2022-08-05T01:10:26;2.97;;;2.78;;
9370;SDS011;4725;48.384;8.984;2022-08-05T01:13:00;2.88;;;2.67;;
9370;SDS011;4725;48.384;8.984;2022-08-05T01:15:38;2.90;;;2.60;;
9370;SDS011;4725;48.384;8.984;2022-08-05T01:18:11;3.05;;;2.75;;
9370;SDS011;4725;48.384;8.984;2022-08-05T01:20:49;3.83;;;2.85;;
9370;SDS011;4725;48.384;8.984;2022-08-05T01:23:29;4.38;;;2.22;;
9370;SDS011;4725;48.384;8.984;2022-08-05T01:26:11;4.72;;;2.53;;
9370;SDS011;4725;48.384;8.984;2022-08-05T01:28:49;3.33;;;2.22;;
9370;SDS011;4725;48.384;8.984;2022-08-05T01:31:21;5.97;;;2.05;;
9370;SDS011;4725;48.384;8.984;2022-08-05T01:33:54;5.15;;;2.60;;
9370;SDS011;4725;48.384;8.984;2022-08-05T01:36:30;4.10;;;2.45;;
9370;SDS011;4725;48.384;8.984;2022-08-05T01:39:01;2.47;;;2.28;;
9370;SDS011;4725;48.384;8.984;2022-08-05T01:41:29;14.63;;;2.97;;
9370;SDS011;4725;48.384;8.984;2022-08-05T01:44:00;2.60;;;2.40;;
9370;SDS011;4725;48.384;8.984;2022-08-05T01:46:28;2.17;;;1.98;;
9370;SDS011;4725;48.384;8.984;2022-08-05T01:48:57;4.28;;;2.05;;
9370;SDS011;4725;48.384;8.984;2022-08-05T01:51:25;3.10;;;2.25;;
9370;SDS011;4725;48.384;8.984;2022-08-05T01:53:56;2.63;;;2.42;;
9370;SDS011;4725;48.384;8.984;2022-08-05T01:56:26;2.85;;;2.22;;
9370;SDS011;4725;48.384;8.984;2022-08-05T01:58:55;2.42;;;2.20;;
9370;SDS011;4725;48.384;8.984;2022-08-05T02:01:25;4.47;;;2.30;;
9370;SDS011;4725;48.384;8.984;2022-08-05T02:03:53;3.55;;;3.25;;
9370;SDS011;4725;48.384;8.984;2022-08-05T02:06:22;4.18;;;2.40;;
9370;SDS011;4725;48.384;8.984;2022-08-05T02:08:49;5.55;;;3.00;;
9370;SDS011;4725;48.384;8.984;2022-08-05T02:11:16;2.97;;;2.72;;
9370;SDS011;4725;48.384;8.984;2022-08-05T02:13:45;2.80;;;2.25;;
9370;SDS011;4725;48.384;8.984;2022-08-05T02:16:18;3.22;;;2.63;;
9370;SDS011;4725;48.384;8.984;2022-08-05T02:18:49;3.20;;;2.38;;
9370;SDS011;4725;48.384;8.984;2022-08-05T02:21:21;4.65;;;2.75;;
9370;SDS011;4725;48.384;8.984;2022-08-05T02:23:54;4.78;;;2.80;;
9370;SDS011;4725;48.384;8.984;2022-08-05T02:26:24;3.03;;;2.45;;
9370;SDS011;4725;48.384;8.984;2022-08-05T02:28:58;2.17;;;2.08;;
9370;SDS011;4725;48.384;8.984;2022-08-05T02:31:26;3.22;;;2.92;;
9370;SDS011;4725;48.384;8.984;2022-08-05T02:33:58;8.15;;;2.50;;
9370;SDS011;4725;48.384;8.984;2022-08-05T02:36:28;2.47;;;2.28;;
9370;SDS011;4725;48.384;8.984;2022-08-05T02:38:57;2.55;;;2.35;;
9370;SDS011;4725;48.384;8.984;2022-08-05T02:41:27;3.95;;;2.55;;
9370;SDS011;4725;48.384;8.984;2022-08-05T02:43:55;3.47;;;2.30;;
9370;SDS011;4725;48.384;8.984;2022-08-05T02:46:25;2.50;;;2.30;;
9370;SDS011;4725;48.384;8.984;2022-08-05T02:48:53;3.65;;;1.90;;
9370;SDS011;4725;48.384;8.984;2022-08-05T02:51:23;2.50;;;2.30;;
9370;SDS011;4725;48.384;8.984;2022-08-05T02:53:52;3.45;;;2.30;;
9370;SDS011;4725;48.384;8.984;2022-08-05T02:56:20;3.97;;;2.58;;
9370;SDS011;4725;48.384;8.984;2022-08-05T02:58:47;6.90;;;2.92;;
9370;SDS011;4725;48.384;8.984;2022-08-05T03:01:16;2.67;;;2.47;;
9370;SDS011;4725;48.384;8.984;2022-08-05T03:03:48;4.20;;;2.92;;
9370;SDS011;4725;48.384;8.984;2022-08-05T03:06:16;2.75;;;2.55;;
9370;SDS011;4725;48.384;8.984;2022-08-05T03:08:47;2.75;;;2.55;;
9370;SDS011;4725;48.384;8.984;2022-08-05T03:11:15;3.00;;;2.70;;
9370;SDS011;4725;48.384;8.984;2022-08-05T03:13:43;4.30;;;2.83;;
9370;SDS011;4725;48.384;8.984;2022-08-05T03:16:10;4.10;;;3.13;;
9370;SDS011;4725;48.384;8.984;2022-08-05T03:18:37;4.68;;;2.88;;
9370;SDS011;4725;48.384;8.984;2022-08-05T03:21:04;3.53;;;2.55;;
9370;SDS011;4725;48.384;8.984;2022-08-05T03:23:31;2.90;;;2.63;;
9370;SDS011;4725;48.384;8.984;2022-08-05T03:26:00;3.88;;;2.38;;
9370;SDS011;4725;48.384;8.984;2022-08-05T03:28:28;3.28;;;2.97;;
9370;SDS011;4725;48.384;8.984;2022-08-05T03:30:55;8.52;;;2.83;;
9370;SDS011;4725;48.384;8.984;2022-08-05T03:33:23;2.60;;;2.40;;
9370;SDS011;4725;48.384;8.984;2022-08-05T03:35:52;4.78;;;3.17;;
9370;SDS011;4725;48.384;8.984;2022-08-05T03:38:21;3.75;;;2.88;;
9370;SDS011;4725;48.384;8.984;2022-08-05T03:40:48;2.72;;;2.40;;
9370;SDS011;4725;48.384;8.984;2022-08-05T03:43:18;3.17;;;2.85;;
9370;SDS011;4725;48.384;8.984;2022-08-05T03:45:48;9.40;;;2.90;;
9370;SDS011;4725;48.384;8.984;2022-08-05T03:48:15;3.45;;;3.15;;
9370;SDS011;4725;48.384;8.984;2022-08-05T03:50:44;2.60;;;2.40;;
9370;SDS011;4725;48.384;8.984;2022-08-05T03:53:19;3.15;;;2.65;;
9370;SDS011;4725;48.384;8.984;2022-08-05T03:55:51;3.05;;;2.75;;
9370;SDS011;4725;48.384;8.984;2022-08-05T03:58:25;3.50;;;2.33;;
9370;SDS011;4725;48.384;8.984;2022-08-05T04:00:56;3.10;;;2.80;;
9370;SDS011;4725;48.384;8.984;2022-08-05T04:03:27;3.00;;;2.58;;
9370;SDS011;4725;48.384;8.984;2022-08-05T04:05:57;3.60;;;2.47;;
9370;SDS011;4725;48.384;8.984;2022-08-05T04:08:24;2.90;;;2.70;;
9370;SDS011;4725;48.384;8.984;2022-08-05T04:10:54;4.55;;;2.20;;
9370;SDS011;4725;48.384;8.984;2022-08-05T04:13:22;4.85;;;2.70;;
9370;SDS011;4725;48.384;8.984;2022-08-05T04:15:51;2.63;;;2.42;;
9370;SDS011;4725;48.384;8.984;2022-08-05T04:18:18;2.90;;;2.58;;
9370;SDS011;4725;48.384;8.984;2022-08-05T04:20:51;2.38;;;2.17;;
9370;SDS011;4725;48.384;8.984;2022-08-05T04:23:19;3.03;;;2.70;;
9370;SDS011;4725;48.384;8.984;2022-08-05T04:25:48;3.00;;;2.47;;
9370;SDS011;4725;48.384;8.984;2022-08-05T04:28:15;4.35;;;3.10;;
9370;SDS011;4725;48.384;8.984;2022-08-05T04:30:42;3.70;;;2.90;;
9370;SDS011;4725;48.384;8.984;2022-08-05T04:33:10;10.10;;;3.08;;
9370;SDS011;4725;48.384;8.984;2022-08-05T04:35:38;5.93;;;2.97;;
9370;SDS011;4725;48.384;8.984;2022-08-05T04:38:05;6.65;;;2.90;;
9370;SDS011;4725;48.384;8.984;2022-08-05T04:40:32;6.50;;;2.88;;
9370;SDS011;4725;48.384;8.984;2022-08-05T04:43:00;12.82;;;2.95;;
9370;SDS011;4725;48.384;8.984;2022-08-05T04:45:27;4.38;;;2.50;;
9370;SDS011;4725;48.384;8.984;2022-08-05T04:47:54;5.25;;;3.00;;
9370;SDS011;4725;48.384;8.984;2022-08-05T04:50:30;6.80;;;2.65;;
9370;SDS011;4725;48.384;8.984;2022-08-05T04:52:57;8.70;;;3.45;;
9370;SDS011;4725;48.384;8.984;2022-08-05T04:55:24;8.25;;;3.20;;
9370;SDS011;4725;48.384;8.984;2022-08-05T04:57:51;3.17;;;2.60;;
9370;SDS011;4725;48.384;8.984;2022-08-05T05:00:17;3.85;;;2.67;;
9370;SDS011;4725;48.384;8.984;2022-08-05T05:02:45;4.03;;;2.80;;
9370;SDS011;4725;48.384;8.984;2022-08-05T05:05:12;3.92;;;2.60;;
9370;SDS011;4725;48.384;8.984;2022-08-05T05:07:40;5.32;;;2.67;;
9370;SDS011;4725;48.384;8.984;2022-08-05T05:10:07;3.42;;;2.80;;
9370;SDS011;4725;48.384;8.984;2022-08-05T05:12:34;10.68;;;2.90;;
9370;SDS011;4725;48.384;8.984;2022-08-05T05:15:01;3.38;;;2.95;;
9370;SDS011;4725;48.384;8.984;2022-08-05T05:17:35;6.85;;;2.75;;
9370;SDS011;4725;48.384;8.984;2022-08-05T05:20:03;3.65;;;2.35;;
9370;SDS011;4725;48.384;8.984;2022-08-05T05:22:31;4.70;;;3.70;;
9370;SDS011;4725;48.384;8.984;2022-08-05T05:24:59;3.63;;;3.22;;
9370;SDS011;4725;48.384;8.984;2022-08-05T05:27:26;3.40;;;2.70;;
9370;SDS011;4725;48.384;8.984;2022-08-05T05:29:54;2.60;;;2.40;;
9370;SDS011;4725;48.384;8.984;2022-08-05T05:32:21;4.07;;;3.08;;
9370;SDS011;4725;48.384;8.984;2022-08-05T05:34:48;3.22;;;2.92;;
9370;SDS011;4725;48.384;8.984;2022-08-05T05:37:15;8.15;;;2.88;;
9370;SDS011;4725;48.384;8.984;2022-08-05T05:39:42;2.80;;;2.60;;
9370;SDS011;4725;48.384;8.984;2022-08-05T05:42:10;2.60;;;2.38;;
9370;SDS011;4725;48.384;8.984;2022-08-05T05:44:37;4.72;;;3.03;;
9370;SDS011;4725;48.384;8.984;2022-08-05T05:47:04;2.60;;;2.40;;
9370;SDS011;4725;48.384;8.984;2022-08-05T05:49:31;3.45;;;2.97;;
9370;SDS011;4725;48.384;8.984;2022-08-05T05:51:58;5.82;;;3.47;;
9370;SDS011;4725;48.384;8.984;2022-08-05T05:54:26;11.57;;;3.03;;
9370;SDS011;4725;48.384;8.984;2022-08-05T05:56:53;5.65;;;3.13;;
9370;SDS011;4725;48.384;8.984;2022-08-05T05:59:21;3.00;;;2.80;;
9370;SDS011;4725;48.384;8.984;2022-08-05T06:01:48;3.97;;;2.45;;
9370;SDS011;4725;48.384;8.984;2022-08-05T06:04:15;5.88;;;2.88;;
9370;SDS011;4725;48.384;8.984;2022-08-05T06:06:43;8.38;;;3.13;;
9370;SDS011;4725;48.384;8.984;2022-08-05T06:09:10;3.58;;;2.83;;
9370;SDS011;4725;48.384;8.984;2022-08-05T06:11:37;4.45;;;2.80;;
9370;SDS011;4725;48.384;8.984;2022-08-05T06:14:04;6.05;;;3.10;;
9370;SDS011;4725;48.384;8.984;2022-08-05T06:16:32;13.75;;;3.00;;
9370;SDS011;4725;48.384;8.984;2022-08-05T06:19:00;8.15;;;3.35;;
9370;SDS011;4725;48.384;8.984;2022-08-05T06:21:27;9.43;;;4.18;;
9370;SDS011;4725;48.384;8.984;2022-08-05T06:23:56;5.82;;;3.90;;
9370;SDS011;4725;48.384;8.984;2022-08-05T06:26:23;6.03;;;3.75;;
9370;SDS011;4725;48.384;8.984;2022-08-05T06:28:50;4.45;;;2.65;;
9370;SDS011;4725;48.384;8.984;2022-08-05T06:31:17;5.45;;;2.70;;
9370;SDS011;4725;48.384;8.984;2022-08-05T06:33:45;6.30;;;2.83;;
9370;SDS011;4725;48.384;8.984;2022-08-05T06:36:12;9.57;;;3.30;;
9370;SDS011;4725;48.384;8.984;2022-08-05T06:38:39;5.38;;;2.55;;
9370;SDS011;4725;48.384;8.984;2022-08-05T06:41:06;5.65;;;3.60;;
9370;SDS011;4725;48.384;8.984;2022-08-05T06:43:33;5.63;;;3.20;;
9370;SDS011;4725;48.384;8.984;2022-08-05T06:46:01;4.10;;;3.58;;
9370;SDS011;4725;48.384;8.984;2022-08-05T06:48:28;4.95;;;3.10;;
9370;SDS011;4725;48.384;8.984;2022-08-05T06:50:56;5.03;;;3.20;;
9370;SDS011;4725;48.384;8.984;2022-08-05T06:53:23;7.07;;;3.47;;
9370;SDS011;4725;48.384;8.984;2022-08-05T06:55:50;7.60;;;3.83;;
9370;SDS011;4725;48.384;8.984;2022-08-05T06:58:17;5.63;;;3.17;;
9370;SDS011;4725;48.384;8.984;2022-08-05T07:00:44;9.55;;;3.42;;
9370;SDS011;4725;48.384;8.984;2022-08-05T07:03:11;6.63;;;2.95;;
9370;SDS011;4725;48.384;8.984;2022-08-05T07:05:38;5.40;;;3.63;;
9370;SDS011;4725;48.384;8.984;2022-08-05T07:08:06;6.55;;;3.40;;
9370;SDS011;4725;48.384;8.984;2022-08-05T07:10:33;9.50;;;3.22;;
9370;SDS011;4725;48.384;8.984;2022-08-05T07:13:00;4.80;;;3.22;;
9370;SDS011;4725;48.384;8.984;2022-08-05T07:15:44;3.83;;;2.90;;
9370;SDS011;4725;48.384;8.984;2022-08-05T07:18:28;4.82;;;3.35;;
9370;SDS011;4725;48.384;8.984;2022-08-05T07:20:55;6.97;;;3.65;;
9370;SDS011;4725;48.384;8.984;2022-08-05T07:23:23;6.35;;;2.88;;
9370;SDS011;4725;48.384;8.984;2022-08-05T07:25:50;3.03;;;2.75;;
9370;SDS011;4725;48.384;8.984;2022-08-05T07:28:17;2.95;;;2.63;;
9370;SDS011;4725;48.384;8.984;2022-08-05T07:30:44;5.85;;;2.85;;
9370;SDS011;4725;48.384;8.984;2022-08-05T07:33:11;4.65;;;2.88;;
9370;SDS011;4725;48.384;8.984;2022-08-05T07:35:38;4.82;;;2.40;;
9370;SDS011;4725;48.384;8.984;2022-08-05T07:38:06;4.18;;;2.58;;
9370;SDS011;4725;48.384;8.984;2022-08-05T07:40:34;4.22;;;2.42;;
9370;SDS011;4725;48.384;8.984;2022-08-05T07:43:01;6.18;;;2.25;;
9370;SDS011;4725;48.384;8.984;2022-08-05T07:45:28;3.60;;;2.58;;
9370;SDS011;4725;48.384;8.984;2022-08-05T07:47:55;3.63;;;2.15;;
9370;SDS011;4725;48.384;8.984;2022-08-05T07:50:22;2.40;;;1.95;;
9370;SDS011;4725;48.384;8.984;2022-08-05T07:52:49;2.85;;;2.15;;
9370;SDS011;4725;48.384;8.984;2022-08-05T07:55:16;3.58;;;1.80;;
9370;SDS011;4725;48.384;8.984;2022-08-05T07:57:45;1.90;;;1.80;;
9370;SDS011;4725;48.384;8.984;2022-08-05T08:00:12;2.70;;;2.00;;
9370;SDS011;4725;48.384;8.984;2022-08-05T08:02:40;6.15;;;2.20;;
9370;SDS011;4725;48.384;8.984;2022-08-05T08:05:08;2.92;;;2.47;;
9370;SDS011;4725;48.384;8.984;2022-08-05T08:07:36;4.97;;;2.20;;
9370;SDS011;4725;48.384;8.984;2022-08-05T08:10:03;4.35;;;2.13;;
9370;SDS011;4725;48.384;8.984;2022-08-05T08:12:30;2.58;;;1.92;;
9370;SDS011;4725;48.384;8.984;2022-08-05T08:14:59;2.67;;;2.00;;
9370;SDS011;4725;48.384;8.984;2022-08-05T08:17:26;3.55;;;2.10;;
9370;SDS011;4725;48.384;8.984;2022-08-05T08:19:53;2.40;;;2.20;;
9370;SDS011;4725;48.384;8.984;2022-08-05T08:22:23;3.95;;;2.20;;
9370;SDS011;4725;48.384;8.984;2022-08-05T08:24:51;2.75;;;2.00;;
9370;SDS011;4725;48.384;8.984;2022-08-05T08:27:18;4.57;;;2.03;;
9370;SDS011;4725;48.384;8.984;2022-08-05T08:29:46;3.83;;;2.00;;
9370;SDS011;4725;48.384;8.984;2022-08-05T08:32:15;2.75;;;2.05;;
9370;SDS011;4725;48.384;8.984;2022-08-05T08:34:42;2.17;;;1.75;;
9370;SDS011;4725;48.384;8.984;2022-08-05T08:37:09;2.55;;;2.10;;
9370;SDS011;4725;48.384;8.984;2022-08-05T08:39:36;2.72;;;1.98;;
9370;SDS011;4725;48.384;8.984;2022-08-05T08:42:03;3.50;;;1.85;;
9370;SDS011;4725;48.384;8.984;2022-08-05T08:44:31;2.30;;;2.10;;
9370;SDS011;4725;48.384;8.984;2022-08-05T08:46:59;3.00;;;1.98;;
9370;SDS011;4725;48.384;8.984;2022-08-05T08:49:32;2.20;;;2.00;;
9370;SDS011;4725;48.384;8.984;2022-08-05T08:52:02;2.63;;;1.95;;
9370;SDS011;4725;48.384;8.984;2022-08-05T08:54:35;2.33;;;1.80;;
9370;SDS011;4725;48.384;8.984;2022-08-05T08:57:04;3.25;;;1.80;;
9370;SDS011;4725;48.384;8.984;2022-08-05T08:59:32;2.28;;;2.08;;
9370;SDS011;4725;48.384;8.984;2022-08-05T09:01:59;2.33;;;2.10;;
9370;SDS011;4725;48.384;8.984;2022-08-05T09:04:32;6.03;;;2.38;;
9370;SDS011;4725;48.384;8.984;2022-08-05T09:07:02;2.00;;;1.73;;
9370;SDS011;4725;48.384;8.984;2022-08-05T09:09:30;3.08;;;2.42;;
9370;SDS011;4725;48.384;8.984;2022-08-05T09:11:58;2.75;;;2.22;;
9370;SDS011;4725;48.384;8.984;2022-08-05T09:14:25;2.50;;;2.28;;
9370;SDS011;4725;48.384;8.984;2022-08-05T09:16:52;5.32;;;1.90;;
9370;SDS011;4725;48.384;8.984;2022-08-05T09:19:19;2.20;;;2.00;;
9370;SDS011;4725;48.384;8.984;2022-08-05T09:21:48;1.70;;;1.60;;
9370;SDS011;4725;48.384;8.984;2022-08-05T09:24:15;2.45;;;2.10;;
9370;SDS011;4725;48.384;8.984;2022-08-05T09:26:45;3.15;;;2.15;;
9370;SDS011;4725;48.384;8.984;2022-08-05T09:29:13;3.75;;;2.05;;
9370;SDS011;4725;48.384;8.984;2022-08-05T09:31:40;1.90;;;1.80;;
9370;SDS011;4725;48.384;8.984;2022-08-05T09:34:10;1.80;;;1.70;;
9370;SDS011;4725;48.384;8.984;2022-08-05T09:36:41;2.53;;;1.73;;
9370;SDS011;4725;48.384;8.984;2022-08-05T09:39:10;3.75;;;2.22;;
9370;SDS011;4725;48.384;8.984;2022-08-05T09:44:34;2.08;;;1.88;;
9370;SDS011;4725;48.384;8.984;2022-08-05T09:47:08;2.78;;;2.08;;
9370;SDS011;4725;48.384;8.984;2022-08-05T09:49:40;2.15;;;1.85;;
9370;SDS011;4725;48.384;8.984;2022-08-05T09:54:57;7.00;;;2.22;;
9370;SDS011;4725;48.384;8.984;2022-08-05T09:57:35;2.67;;;1.80;;
9370;SDS011;4725;48.384;8.984;2022-08-05T10:00:06;1.88;;;1.65;;
9370;SDS011;4725;48.384;8.984;2022-08-05T10:02:37;2.13;;;1.80;;
9370;SDS011;4725;48.384;8.984;2022-08-05T10:05:06;1.73;;;1.63;;
9370;SDS011;4725;48.384;8.984;2022-08-05T10:07:45;3.65;;;1.60;;
9370;SDS011;4725;48.384;8.984;2022-08-05T10:10:15;1.98;;;1.70;;
9370;SDS011;4725;48.384;8.984;2022-08-05T10:12:44;1.63;;;1.52;;
9370;SDS011;4725;48.384;8.984;2022-08-05T10:15:19;1.85;;;1.73;;
9370;SDS011;4725;48.384;8.984;2022-08-05T10:18:01;2.28;;;1.85;;
9370;SDS011;4725;48.384;8.984;2022-08-05T10:20:34;2.30;;;2.10;;
9370;SDS011;4725;48.384;8.984;2022-08-05T10:23:03;3.20;;;2.08;;
9370;SDS011;4725;48.384;8.984;2022-08-05T10:25:31;2.25;;;2.05;;
9370;SDS011;4725;48.384;8.984;2022-08-05T10:27:58;1.67;;;1.58;;
9370;SDS011;4725;48.384;8.984;2022-08-05T10:30:26;1.70;;;1.60;;
9370;SDS011;4725;48.384;8.984;2022-08-05T10:32:54;5.07;;;1.60;;
9370;SDS011;4725;48.384;8.984;2022-08-05T10:35:23;1.90;;;1.75;;
9370;SDS011;4725;48.384;8.984;2022-08-05T10:37:51;4.03;;;1.70;;
9370;SDS011;4725;48.384;8.984;2022-08-05T10:40:20;3.85;;;1.58;;
9370;SDS011;4725;48.384;8.984;2022-08-05T10:42:55;1.92;;;1.60;;
9370;SDS011;4725;48.384;8.984;2022-08-05T10:45:29;1.65;;;1.55;;
9370;SDS011;4725;48.384;8.984;2022-08-05T10:47:59;1.70;;;1.60;;
9370;SDS011;4725;48.384;8.984;2022-08-05T10:50:56;1.42;;;1.33;;
9370;SDS011;4725;48.384;8.984;2022-08-05T10:53:37;1.65;;;1.55;;
9370;SDS011;4725;48.384;8.984;2022-08-05T10:56:06;2.97;;;1.70;;
9370;SDS011;4725;48.384;8.984;2022-08-05T10:58:36;1.67;;;1.58;;
9370;SDS011;4725;48.384;8.984;2022-08-05T11:01:13;3.03;;;1.73;;
9370;SDS011;4725;48.384;8.984;2022-08-05T11:04:00;1.77;;;1.67;;
9370;SDS011;4725;48.384;8.984;2022-08-05T11:09:36;2.20;;;1.50;;
9370;SDS011;4725;48.384;8.984;2022-08-05T11:12:05;1.67;;;1.58;;
9370;SDS011;4725;48.384;8.984;2022-08-05T11:15:15;1.95;;;1.80;;
9370;SDS011;4725;48.384;8.984;2022-08-05T11:17:47;1.70;;;1.60;;
9370;SDS011;4725;48.384;8.984;2022-08-05T11:20:32;1.98;;;1.60;;
9370;SDS011;4725;48.384;8.984;2022-08-05T11:26:05;3.70;;;1.85;;
9370;SDS011;4725;48.384;8.984;2022-08-05T11:28:37;1.95;;;1.67;;
9370;SDS011;4725;48.384;8.984;2022-08-05T11:31:28;1.65;;;1.55;;
9370;SDS011;4725;48.384;8.984;2022-08-05T11:33:58;2.20;;;1.80;;
9370;SDS011;4725;48.384;8.984;2022-08-05T11:39:13;1.77;;;1.67;;
9370;SDS011;4725;48.384;8.984;2022-08-05T11:41:49;2.05;;;1.70;;
9370;SDS011;4725;48.384;8.984;2022-08-05T11:44:18;3.28;;;2.30;;
9370;SDS011;4725;48.384;8.984;2022-08-05T11:46:49;1.73;;;1.63;;
9370;SDS011;4725;48.384;8.984;2022-08-05T11:49:17;1.85;;;1.75;;
9370;SDS011;4725;48.384;8.984;2022-08-05T11:51:46;2.70;;;1.85;;
9370;SDS011;4725;48.384;8.984;2022-08-05T11:54:19;2.15;;;1.88;;
9370;SDS011;4725;48.384;8.984;2022-08-05T11:56:49;1.95;;;1.85;;
9370;SDS011;4725;48.384;8.984;2022-08-05T11:59:18;1.90;;;1.80;;
9370;SDS011;4725;48.384;8.984;2022-08-05T12:01:57;2.55;;;1.83;;
9370;SDS011;4725;48.384;8.984;2022-08-05T12:04:26;3.75;;;2.00;;
9370;SDS011;4725;48.384;8.984;2022-08-05T12:07:02;2.75;;;2.00;;
9370;SDS011;4725;48.384;8.984;2022-08-05T12:09:29;2.10;;;1.85;;
9370;SDS011;4725;48.384;8.984;2022-08-05T12:12:02;2.40;;;1.80;;
9370;SDS011;4725;48.384;8.984;2022-08-05T12:14:37;1.77;;;1.63;;
9370;SDS011;4725;48.384;8.984;2022-08-05T12:17:08;5.22;;;1.95;;
9370;SDS011;4725;48.384;8.984;2022-08-05T12:19:40;3.10;;;1.75;;
9370;SDS011;4725;48.384;8.984;2022-08-05T12:22:07;2.47;;;1.83;;
9370;SDS011;4725;48.384;8.984;2022-08-05T12:24:35;3.42;;;1.67;;
9370;SDS011;4725;48.384;8.984;2022-08-05T12:27:07;3.83;;;2.03;;
9370;SDS011;4725;48.384;8.984;2022-08-05T12:29:34;5.43;;;1.90;;
9370;SDS011;4725;48.384;8.984;2022-08-05T12:32:01;2.13;;;1.90;;
9370;SDS011;4725;48.384;8.984;2022-08-05T12:34:32;2.03;;;1.80;;
9370;SDS011;4725;48.384;8.984;2022-08-05T12:37:02;2.85;;;1.98;;
9370;SDS011;4725;48.384;8.984;2022-08-05T12:39:35;1.60;;;1.50;;
9370;SDS011;4725;48.384;8.984;2022-08-05T12:42:07;4.10;;;1.50;;
9370;SDS011;4725;48.384;8.984;2022-08-05T12:44:36;4.50;;;1.60;;
9370;SDS011;4725;48.384;8.984;2022-08-05T12:47:04;1.67;;;1.58;;
9370;SDS011;4725;48.384;8.984;2022-08-05T12:49:39;1.95;;;1.80;;
9370;SDS011;4725;48.384;8.984;2022-08-05T12:52:11;3.45;;;1.70;;
9370;SDS011;4725;48.384;8.984;2022-08-05T12:54:40;4.28;;;1.90;;
9370;SDS011;4725;48.384;8.984;2022-08-05T12:57:08;3.28;;;1.83;;
9370;SDS011;4725;48.384;8.984;2022-08-05T12:59:44;2.22;;;1.75;;
9370;SDS011;4725;48.384;8.984;2022-08-05T13:02:14;3.30;;;1.90;;
9370;SDS011;4725;48.384;8.984;2022-08-05T13:04:45;1.92;;;1.67;;
9370;SDS011;4725;48.384;8.984;2022-08-05T13:07:15;1.95;;;1.80;;
9370;SDS011;4725;48.384;8.984;2022-08-05T13:09:46;5.22;;;1.63;;
9370;SDS011;4725;48.384;8.984;2022-08-05T13:12:16;1.60;;;1.50;;
9370;SDS011;4725;48.384;8.984;2022-08-05T13:14:44;3.78;;;1.90;;
9370;SDS011;4725;48.384;8.984;2022-08-05T13:17:16;2.30;;;2.05;;
9370;SDS011;4725;48.384;8.984;2022-08-05T13:20:00;3.08;;;1.50;;
9370;SDS011;4725;48.384;8.984;2022-08-05T13:22:29;2.08;;;1.80;;
9370;SDS011;4725;48.384;8.984;2022-08-05T13:24:58;4.53;;;2.15;;
9370;SDS011;4725;48.384;8.984;2022-08-05T13:27:27;5.38;;;2.13;;
9370;SDS011;4725;48.384;8.984;2022-08-05T13:29:55;3.15;;;2.42;;
9370;SDS011;4725;48.384;8.984;2022-08-05T13:32:23;1.90;;;1.80;;
9370;SDS011;4725;48.384;8.984;2022-08-05T13:34:50;2.42;;;2.08;;
9370;SDS011;4725;48.384;8.984;2022-08-05T13:37:20;1.80;;;1.70;;
9370;SDS011;4725;48.384;8.984;2022-08-05T13:39:47;1.75;;;1.65;;
9370;SDS011;4725;48.384;8.984;2022-08-05T13:42:15;2.42;;;1.95;;
9370;SDS011;4725;48.384;8.984;2022-08-05T13:44:42;2.28;;;1.73;;
9370;SDS011;4725;48.384;8.984;2022-08-05T13:47:09;3.72;;;2.20;;
9370;SDS011;4725;48.384;8.984;2022-08-05T13:49:36;5.82;;;2.00;;
9370;SDS011;4725;48.384;8.984;2022-08-05T13:52:09;2.25;;;2.05;;
9370;SDS011;4725;48.384;8.984;2022-08-05T13:54:39;2.83;;;2.30;;
9370;SDS011;4725;48.384;8.984;2022-08-05T13:57:07;2.17;;;1.98;;
9370;SDS011;4725;48.384;8.984;2022-08-05T13:59:36;3.42;;;1.95;;
9370;SDS011;4725;48.384;8.984;2022-08-05T14:02:04;2.20;;;2.00;;
9370;SDS011;4725;48.384;8.984;2022-08-05T14:04:33;4.55;;;2.08;;
9370;SDS011;4725;48.384;8.984;2022-08-05T14:07:20;6.70;;;2.28;;
9370;SDS011;4725;48.384;8.984;2022-08-05T14:09:51;4.15;;;2.55;;
9370;SDS011;4725;48.384;8.984;2022-08-05T14:12:18;5.35;;;2.38;;
9370;SDS011;4725;48.384;8.984;2022-08-05T14:14:45;5.65;;;2.40;;
9370;SDS011;4725;48.384;8.984;2022-08-05T14:17:12;3.50;;;2.53;;
9370;SDS011;4725;48.384;8.984;2022-08-05T14:19:40;3.92;;;2.20;;
9370;SDS011;4725;48.384;8.984;2022-08-05T14:22:07;9.00;;;2.92;;
9370;SDS011;4725;48.384;8.984;2022-08-05T14:24:34;2.80;;;2.38;;
9370;SDS011;4725;48.384;8.984;2022-08-05T14:27:05;5.30;;;2.45;;
9370;SDS011;4725;48.384;8.984;2022-08-05T14:29:32;2.50;;;2.30;;
9370;SDS011;4725;48.384;8.984;2022-08-05T14:31:59;4.63;;;2.97;;
9370;SDS011;4725;48.384;8.984;2022-08-05T14:34:27;3.53;;;2.70;;
9370;SDS011;4725;48.384;8.984;2022-08-05T14:36:53;5.82;;;3.35;;
9370;SDS011;4725;48.384;8.984;2022-08-05T14:39:21;4.88;;;3.50;;
9370;SDS011;4725;48.384;8.984;2022-08-05T14:41:48;4.53;;;3.47;;
9370;SDS011;4725;48.384;8.984;2022-08-05T14:44:16;7.32;;;4.50;;
9370;SDS011;4725;48.384;8.984;2022-08-05T14:46:44;6.13;;;3.53;;
9370;SDS011;4725;48.384;8.984;2022-08-05T14:49:11;3.45;;;2.80;;
9370;SDS011;4725;48.384;8.984;2022-08-05T14:51:39;4.35;;;3.80;;
9370;SDS011;4725;48.384;8.984;2022-08-05T14:54:07;6.28;;;3.35;;
9370;SDS011;4725;48.384;8.984;2022-08-05T14:56:34;3.42;;;3.13;;
9370;SDS011;4725;48.384;8.984;2022-08-05T14:59:02;3.97;;;3.10;;
9370;SDS011;4725;48.384;8.984;2022-08-05T15:01:31;6.07;;;3.80;;
9370;SDS011;4725;48.384;8.984;2022-08-05T15:03:58;4.90;;;3.78;;
9370;SDS011;4725;48.384;8.984;2022-08-05T15:06:26;3.65;;;3.13;;
9370;SDS011;4725;48.384;8.984;2022-08-05T15:08:54;6.18;;;3.60;;
9370;SDS011;4725;48.384;8.984;2022-08-05T15:11:21;3.38;;;3.08;;
9370;SDS011;4725;48.384;8.984;2022-08-05T15:13:48;8.05;;;2.85;;
9370;SDS011;4725;48.384;8.984;2022-08-05T15:16:15;5.65;;;3.42;;
9370;SDS011;4725;48.384;8.984;2022-08-05T15:18:44;3.85;;;3.45;;
9370;SDS011;4725;48.384;8.984;2022-08-05T15:21:12;7.13;;;4.03;;
9370;SDS011;4725;48.384;8.984;2022-08-05T15:23:40;6.50;;;3.35;;
9370;SDS011;4725;48.384;8.984;2022-08-05T15:26:07;5.82;;;2.83;;
9370;SDS011;4725;48.384;8.984;2022-08-05T15:28:35;5.90;;;3.10;;
9370;SDS011;4725;48.384;8.984;2022-08-05T15:31:02;3.83;;;2.97;;
9370;SDS011;4725;48.384;8.984;2022-08-05T15:33:30;8.27;;;3.10;;
9370;SDS011;4725;48.384;8.984;2022-08-05T15:35:59;4.68;;;3.13;;
9370;SDS011;4725;48.384;8.984;2022-08-05T15:38:27;5.75;;;4.47;;
9370;SDS011;4725;48.384;8.984;2022-08-05T15:40:55;3.65;;;3.22;;
9370;SDS011;4725;48.384;8.984;2022-08-05T15:43:22;4.32;;;2.88;;